createdAt,value
2018-08-06T00:01:32.215Z,2.27
2018-08-06T00:04:00.763Z,2.30
2018-08-06T00:09:02.532Z,2.80
2018-08-06T00:11:31.830Z,2.70
2018-08-06T00:14:00.343Z,2.20
2018-08-06T00:16:30.888Z,2.90
2018-08-06T00:18:59.398Z,2.93
2018-08-06T00:21:27.955Z,2.77
2018-08-06T00:23:56.449Z,2.83
2018-08-06T00:26:25.528Z,2.80
2018-08-06T00:28:55.020Z,2.93
2018-08-06T00:31:23.518Z,2.90
2018-08-06T00:33:55.979Z,2.53
2018-08-06T00:36:26.831Z,2.70
2018-08-06T00:38:55.431Z,2.70
2018-08-06T00:41:24.045Z,2.47
2018-08-06T00:43:52.652Z,2.20
2018-08-06T00:46:21.309Z,2.70
2018-08-06T00:48:51.400Z,2.57
2018-08-06T00:51:19.949Z,2.23
2018-08-06T00:53:49.712Z,2.50
2018-08-06T00:56:18.447Z,2.87
2018-08-06T00:58:47.354Z,2.50
2018-08-06T01:01:15.906Z,2.50
2018-08-06T01:03:44.463Z,2.90
2018-08-06T01:06:12.983Z,2.57
2018-08-06T01:08:49.514Z,4.80
2018-08-06T01:11:18.004Z,3.10
2018-08-06T01:13:47.915Z,3.93
2018-08-06T01:16:16.471Z,3.60
2018-08-06T01:18:45.031Z,3.63
2018-08-06T01:21:13.527Z,4.73
2018-08-06T01:23:42.071Z,2.90
2018-08-06T01:26:10.933Z,2.73
2018-08-06T01:28:39.482Z,3.50
2018-08-06T01:31:08.121Z,2.60
2018-08-06T01:33:41.799Z,2.13
2018-08-06T01:36:10.370Z,2.97
2018-08-06T01:38:40.840Z,3.47
2018-08-06T01:41:09.859Z,2.90
2018-08-06T01:43:38.489Z,2.10
2018-08-06T01:46:07.060Z,3.53
2018-08-06T01:48:35.927Z,2.57
2018-08-06T01:51:04.458Z,3.10
2018-08-06T01:53:32.998Z,2.23
2018-08-06T01:56:04.485Z,1.80
2018-08-06T01:58:33.371Z,2.40
2018-08-06T02:01:01.883Z,2.00
2018-08-06T02:03:30.547Z,2.03
2018-08-06T02:05:59.108Z,2.10
2018-08-06T02:08:27.603Z,1.70
2018-08-06T02:10:59.127Z,1.83
2018-08-06T02:13:27.886Z,9.33
2018-08-06T02:15:56.455Z,3.30
2018-08-06T02:18:25.011Z,2.00
2018-08-06T02:20:53.573Z,2.10
2018-08-06T02:23:24.231Z,2.07
2018-08-06T02:25:52.771Z,2.03
2018-08-06T02:28:21.325Z,2.00
2018-08-06T02:30:49.876Z,2.07
2018-08-06T02:33:18.462Z,1.97
2018-08-06T02:35:46.971Z,2.60
2018-08-06T02:38:15.635Z,2.00
2018-08-06T02:40:44.523Z,2.10
2018-08-06T02:43:13.411Z,2.13
2018-08-06T02:45:42.100Z,1.97
2018-08-06T02:48:11.704Z,2.60
2018-08-06T02:50:40.210Z,2.43
2018-08-06T02:53:14.360Z,2.20
2018-08-06T02:55:43.165Z,2.30
2018-08-06T02:58:11.771Z,2.50
2018-08-06T03:00:40.458Z,8.67
2018-08-06T03:03:09.079Z,3.50
2018-08-06T03:05:37.659Z,3.07
2018-08-06T03:10:40.027Z,2.13
2018-08-06T03:13:13.539Z,2.07
2018-08-06T03:15:42.103Z,18.37
2018-08-06T03:18:10.750Z,6.70
2018-08-06T03:20:39.274Z,3.10
2018-08-06T03:23:07.845Z,3.20
2018-08-06T03:25:42.400Z,2.90
2018-08-06T03:28:10.925Z,2.20
2018-08-06T03:30:39.467Z,2.40
2018-08-06T03:33:12.047Z,2.80
2018-08-06T03:35:40.608Z,2.60
2018-08-06T03:38:09.202Z,2.43
2018-08-06T03:40:37.756Z,2.17
2018-08-06T03:43:11.895Z,2.50
2018-08-06T03:45:40.435Z,2.40
2018-08-06T03:48:09.083Z,2.10
2018-08-06T03:53:12.083Z,2.63
2018-08-06T03:55:40.689Z,2.37
2018-08-06T03:58:09.541Z,2.40
2018-08-06T04:00:41.748Z,2.50
2018-08-06T04:03:10.309Z,2.53
2018-08-06T04:05:40.100Z,3.00
2018-08-06T04:08:08.682Z,2.00
2018-08-06T04:10:37.272Z,2.37
2018-08-06T04:13:06.150Z,2.67
2018-08-06T04:15:34.710Z,2.40
2018-08-06T04:20:30.266Z,2.53
2018-08-06T04:23:02.212Z,2.93
2018-08-06T04:25:30.792Z,3.10
2018-08-06T04:28:03.513Z,2.70
2018-08-06T04:30:32.404Z,2.73
2018-08-06T04:33:01.008Z,3.23
2018-08-06T04:35:29.716Z,3.00
2018-08-06T04:37:58.923Z,2.70
2018-08-06T04:40:32.212Z,2.70
2018-08-06T04:43:00.830Z,2.40
2018-08-06T04:45:29.406Z,3.87
2018-08-06T04:47:58.295Z,2.50
2018-08-06T04:50:30.686Z,2.60
2018-08-06T04:52:59.206Z,2.40
2018-08-06T04:55:27.830Z,2.90
2018-08-06T04:57:56.318Z,3.40
2018-08-06T05:00:24.923Z,2.50
2018-08-06T05:02:56.876Z,2.90
2018-08-06T05:05:25.491Z,2.70
2018-08-06T05:07:54.017Z,2.70
2018-08-06T05:10:22.525Z,2.73
2018-08-06T05:12:57.217Z,2.97
2018-08-06T05:15:25.835Z,2.50
2018-08-06T05:17:58.303Z,2.90
2018-08-06T05:20:26.898Z,3.00
2018-08-06T05:22:55.770Z,3.30
2018-08-06T05:25:24.392Z,2.80
2018-08-06T05:27:52.903Z,3.70
2018-08-06T05:30:21.843Z,3.83
2018-08-06T05:32:51.001Z,5.27
2018-08-06T05:35:20.552Z,8.83
2018-08-06T05:37:49.731Z,15.23
2018-08-06T05:40:25.111Z,3.70
2018-08-06T05:42:53.703Z,4.20
2018-08-06T05:45:22.252Z,4.27
2018-08-06T05:47:50.820Z,4.20
2018-08-06T05:50:21.831Z,4.03
2018-08-06T05:52:50.488Z,3.93
2018-08-06T05:55:19.137Z,4.17
2018-08-06T05:57:47.996Z,3.00
2018-08-06T06:00:18.609Z,4.20
2018-08-06T06:02:47.783Z,4.27
2018-08-06T06:05:16.288Z,4.27
2018-08-06T06:07:44.805Z,3.87
2018-08-06T06:10:14.796Z,7.10
2018-08-06T06:15:17.536Z,3.80
2018-08-06T06:17:46.193Z,3.43
2018-08-06T06:20:23.408Z,3.43
2018-08-06T06:22:55.607Z,3.47
2018-08-06T06:25:24.338Z,2.90
2018-08-06T06:27:52.903Z,3.23
2018-08-06T06:30:21.810Z,2.83
2018-08-06T06:32:50.548Z,2.83
2018-08-06T06:35:19.112Z,3.00
2018-08-06T06:37:47.977Z,3.17
2018-08-06T06:40:18.710Z,3.57
2018-08-06T06:42:47.450Z,4.30
2018-08-06T06:47:52.029Z,3.03
2018-08-06T06:50:20.559Z,3.50
2018-08-06T06:52:49.222Z,3.40
2018-08-06T06:55:19.852Z,2.63
2018-08-06T06:57:48.420Z,2.80
2018-08-06T07:00:17.048Z,2.93
2018-08-06T07:02:45.665Z,2.93
2018-08-06T07:05:14.324Z,3.47
2018-08-06T07:07:44.298Z,3.20
2018-08-06T07:10:13.572Z,4.07
2018-08-06T07:12:44.165Z,3.20
2018-08-06T07:15:15.203Z,3.60
2018-08-06T07:17:46.277Z,3.30
2018-08-06T07:20:15.692Z,3.40
2018-08-06T07:22:44.276Z,3.17
2018-08-06T07:25:13.288Z,2.50
2018-08-06T07:27:42.865Z,3.00
2018-08-06T07:30:14.198Z,3.30
2018-08-06T07:32:44.041Z,2.90
2018-08-06T07:35:15.803Z,2.90
2018-08-06T07:37:44.539Z,2.90
2018-08-06T07:40:15.278Z,3.60
2018-08-06T07:42:43.945Z,2.53
2018-08-06T07:45:16.391Z,2.63
2018-08-06T07:47:47.525Z,2.70
2018-08-06T07:50:17.454Z,2.80
2018-08-06T07:52:46.776Z,3.57
2018-08-06T07:55:15.475Z,2.63
2018-08-06T07:57:44.715Z,3.00
2018-08-06T08:00:16.696Z,3.93
2018-08-06T08:02:49.044Z,3.60
2018-08-06T08:05:18.558Z,3.30
2018-08-06T08:07:48.117Z,3.50
2018-08-06T08:10:21.979Z,3.00
2018-08-06T08:12:50.631Z,2.50
2018-08-06T08:15:26.730Z,3.03
2018-08-06T08:17:56.873Z,2.80
2018-08-06T08:20:25.824Z,2.87
2018-08-06T08:22:54.464Z,2.77
2018-08-06T08:25:23.629Z,3.17
2018-08-06T08:27:52.303Z,2.80
2018-08-06T08:30:21.119Z,2.97
2018-08-06T08:32:49.766Z,3.10
2018-08-06T08:35:18.708Z,2.40
2018-08-06T08:37:47.344Z,3.73
2018-08-06T08:40:18.877Z,3.50
2018-08-06T08:42:48.691Z,2.90
2018-08-06T08:45:18.007Z,3.17
2018-08-06T08:47:46.839Z,3.10
2018-08-06T08:50:16.922Z,2.70
2018-08-06T08:52:45.854Z,3.50
2018-08-06T08:55:15.879Z,3.20
2018-08-06T08:57:44.630Z,2.70
2018-08-06T09:00:23.144Z,3.33
2018-08-06T09:02:52.615Z,3.50
2018-08-06T09:05:21.519Z,3.43
2018-08-06T09:07:51.112Z,3.47
2018-08-06T09:10:20.226Z,3.23
2018-08-06T09:12:48.917Z,2.90
2018-08-06T09:15:22.106Z,3.00
2018-08-06T09:20:48.567Z,3.20
2018-08-06T09:23:17.075Z,3.60
2018-08-06T09:25:45.593Z,3.23
2018-08-06T09:28:14.190Z,3.60
2018-08-06T09:30:42.757Z,4.27
2018-08-06T09:33:11.342Z,3.07
2018-08-06T09:35:41.224Z,3.53
2018-08-06T09:38:11.177Z,3.10
2018-08-06T09:40:39.855Z,3.37
2018-08-06T09:43:08.733Z,3.30
2018-08-06T09:45:37.323Z,3.10
2018-08-06T09:48:06.384Z,3.20
2018-08-06T09:50:35.236Z,3.67
2018-08-06T09:53:04.058Z,3.20
2018-08-06T09:55:33.359Z,3.20
2018-08-06T09:58:03.914Z,3.13
2018-08-06T10:00:37.810Z,3.03
2018-08-06T10:03:06.758Z,3.20
2018-08-06T10:05:35.672Z,3.43
2018-08-06T10:08:04.995Z,2.90
2018-08-06T10:10:33.554Z,3.10
2018-08-06T10:13:02.742Z,3.53
2018-08-06T10:15:31.576Z,3.20
2018-08-06T10:18:07.165Z,3.10
2018-08-06T10:20:43.913Z,3.60
2018-08-06T10:23:14.860Z,3.80
2018-08-06T10:25:47.222Z,3.03
2018-08-06T10:28:18.573Z,3.27
2018-08-06T10:30:47.213Z,2.90
2018-08-06T10:33:15.725Z,3.10
2018-08-06T10:35:46.643Z,3.17
2018-08-06T10:38:21.793Z,3.23
2018-08-06T10:40:53.025Z,3.30
2018-08-06T10:43:25.190Z,2.90
2018-08-06T10:45:54.067Z,3.17
2018-08-06T10:48:22.710Z,3.20
2018-08-06T10:50:51.580Z,3.23
2018-08-06T10:53:20.194Z,3.60
2018-08-06T10:55:48.772Z,3.43
2018-08-06T10:58:18.523Z,3.30
2018-08-06T11:00:47.095Z,3.57
2018-08-06T11:03:15.723Z,3.00
2018-08-06T11:05:44.628Z,3.07
2018-08-06T11:08:19.887Z,3.17
2018-08-06T11:10:48.511Z,3.50
2018-08-06T11:13:17.340Z,3.57
2018-08-06T11:15:57.207Z,2.90
2018-08-06T11:18:25.751Z,3.23
2018-08-06T11:20:57.784Z,2.97
2018-08-06T11:23:26.317Z,2.93
2018-08-06T11:25:54.951Z,3.30
2018-08-06T11:28:23.585Z,3.10
2018-08-06T11:30:52.116Z,3.43
2018-08-06T11:33:20.662Z,2.87
2018-08-06T11:35:52.593Z,2.80
2018-08-06T11:38:21.752Z,3.07
2018-08-06T11:40:50.276Z,3.50
2018-08-06T11:43:21.648Z,3.10
2018-08-06T11:45:50.499Z,2.87
2018-08-06T11:48:19.104Z,3.10
2018-08-06T11:50:47.737Z,3.30
2018-08-06T11:53:17.872Z,3.30
2018-08-06T11:55:46.496Z,3.53
2018-08-06T11:58:17.699Z,3.00
2018-08-06T12:00:46.277Z,2.90
2018-08-06T12:03:14.918Z,3.10
2018-08-06T12:05:46.377Z,3.40
2018-08-06T12:08:16.908Z,3.10
2018-08-06T12:10:49.967Z,3.67
2018-08-06T12:13:27.185Z,2.73
2018-08-06T12:16:03.289Z,3.97
2018-08-06T12:21:33.482Z,2.93
2018-08-06T12:24:05.007Z,3.30
2018-08-06T12:26:34.120Z,3.60
2018-08-06T12:29:03.154Z,3.30
2018-08-06T12:31:31.838Z,3.20
2018-08-06T12:34:01.029Z,2.90
2018-08-06T12:36:29.683Z,3.40
2018-08-06T12:39:15.626Z,2.73
2018-08-06T12:41:44.456Z,3.50
2018-08-06T12:44:14.636Z,3.30
2018-08-06T12:46:43.371Z,3.40
2018-08-06T12:49:12.117Z,3.20
2018-08-06T12:51:40.993Z,3.27
2018-08-06T12:54:10.003Z,4.00
2018-08-06T12:56:38.650Z,3.30
2018-08-06T12:59:07.511Z,3.00
2018-08-06T13:04:07.342Z,2.80
2018-08-06T13:06:35.905Z,3.33
2018-08-06T13:09:08.028Z,3.30
2018-08-06T13:11:36.567Z,2.80
2018-08-06T13:14:06.286Z,4.73
2018-08-06T13:16:35.177Z,3.43
2018-08-06T13:19:03.879Z,3.50
2018-08-06T13:21:32.725Z,3.17
2018-08-06T13:24:01.775Z,2.90
2018-08-06T13:26:30.668Z,2.80
2018-08-06T13:28:59.263Z,2.90
2018-08-06T13:31:27.792Z,3.60
2018-08-06T13:33:56.672Z,2.62
2018-08-06T13:36:25.247Z,3.35
2018-08-06T13:38:53.864Z,2.52
2018-08-06T13:41:22.682Z,2.98
2018-08-06T13:43:51.355Z,3.62
2018-08-06T13:46:19.933Z,3.20
2018-08-06T13:48:48.893Z,2.60
2018-08-06T13:51:17.587Z,2.77
2018-08-06T13:53:46.217Z,3.15
2018-08-06T13:56:15.324Z,3.55
2018-08-06T13:58:43.863Z,3.37
2018-08-06T14:01:12.680Z,2.92
2018-08-06T14:03:41.714Z,2.98
2018-08-06T14:06:10.286Z,3.37
2018-08-06T14:08:38.820Z,2.80
2018-08-06T14:11:09.746Z,2.83
2018-08-06T14:13:38.310Z,2.70
2018-08-06T14:16:07.077Z,2.70
2018-08-06T14:18:35.892Z,3.50
2018-08-06T14:21:04.619Z,2.80
2018-08-06T14:23:33.171Z,3.37
2018-08-06T14:26:04.229Z,3.40
2018-08-06T14:28:33.252Z,3.37
2018-08-06T14:31:01.893Z,3.95
2018-08-06T14:33:31.269Z,4.20
2018-08-06T14:35:59.796Z,3.87
2018-08-06T14:38:28.492Z,4.03
2018-08-06T14:40:58.439Z,4.62
2018-08-06T14:43:26.966Z,4.28
2018-08-06T14:45:55.539Z,3.90
2018-08-06T14:48:24.229Z,2.72
2018-08-06T14:50:52.821Z,3.12
2018-08-06T14:53:21.858Z,3.55
2018-08-06T14:55:50.764Z,3.42
2018-08-06T14:58:19.634Z,3.30
2018-08-06T15:00:48.767Z,3.30
2018-08-06T15:03:17.441Z,3.27
2018-08-06T15:05:45.987Z,3.33
2018-08-06T15:08:15.053Z,4.05
2018-08-06T15:10:43.801Z,3.55
2018-08-06T15:13:12.664Z,3.75
2018-08-06T15:15:41.520Z,4.00
2018-08-06T15:18:10.132Z,3.20
2018-08-06T15:20:39.150Z,3.67
2018-08-06T15:23:08.712Z,3.75
2018-08-06T15:25:37.481Z,3.00
2018-08-06T15:28:06.397Z,2.62
2018-08-06T15:30:35.225Z,3.70
2018-08-06T15:33:04.128Z,3.10
2018-08-06T15:35:32.934Z,3.08
2018-08-06T15:38:03.294Z,2.90
2018-08-06T15:40:32.384Z,3.40
2018-08-06T15:43:01.258Z,3.17
2018-08-06T15:45:30.616Z,3.30
2018-08-06T15:47:59.179Z,3.10
2018-08-06T15:50:27.790Z,3.05
2018-08-06T15:52:56.670Z,3.02
2018-08-06T15:55:25.188Z,3.72
2018-08-06T15:57:53.732Z,2.90
2018-08-06T16:00:23.626Z,3.40
2018-08-06T16:02:52.239Z,3.10
2018-08-06T16:05:20.821Z,2.90
2018-08-06T16:07:51.031Z,2.90
2018-08-06T16:10:19.596Z,3.37
2018-08-06T16:12:48.142Z,3.30
2018-08-06T16:15:17.421Z,3.58
2018-08-06T16:17:46.221Z,3.30
2018-08-06T16:20:16.344Z,3.95
2018-08-06T16:22:45.266Z,3.80
2018-08-06T16:25:14.382Z,3.50
2018-08-06T16:27:43.079Z,3.30
2018-08-06T16:30:15.504Z,3.72
2018-08-06T16:32:44.944Z,3.27
2018-08-06T16:35:13.621Z,3.40
2018-08-06T16:37:42.717Z,3.80
2018-08-06T16:40:11.974Z,3.10
2018-08-06T16:42:40.597Z,3.40
2018-08-06T16:45:10.116Z,3.73
2018-08-06T16:47:39.135Z,2.67
2018-08-06T16:50:09.754Z,3.77
2018-08-06T16:52:38.729Z,3.53
2018-08-06T16:55:07.851Z,3.70
2018-08-06T16:57:36.561Z,3.33
2018-08-06T17:00:11.877Z,2.57
2018-08-06T17:02:40.499Z,3.50
2018-08-06T17:05:10.999Z,3.60
2018-08-06T17:07:39.996Z,3.30
2018-08-06T17:10:11.300Z,3.43
2018-08-06T17:12:40.019Z,3.83
2018-08-06T17:15:10.107Z,3.73
2018-08-06T17:17:38.835Z,3.30
2018-08-06T17:20:12.167Z,3.30
2018-08-06T17:22:41.189Z,3.50
2018-08-06T17:25:11.027Z,3.20
2018-08-06T17:27:40.249Z,4.20
2018-08-06T17:30:09.810Z,4.10
2018-08-06T17:32:38.953Z,3.50
2018-08-06T17:35:09.251Z,3.93
2018-08-06T17:38:17.280Z,3.92
2018-08-06T17:40:46.011Z,4.20
2018-08-06T17:43:14.758Z,3.17
2018-08-06T17:45:43.698Z,4.40
2018-08-06T17:48:12.285Z,3.60
2018-08-06T17:50:40.930Z,3.53
2018-08-06T17:53:09.579Z,3.73
2018-08-06T17:55:38.239Z,4.67
2018-08-06T17:58:07.279Z,4.23
2018-08-06T18:00:36.079Z,3.80
2018-08-06T18:05:27.647Z,4.20
2018-08-06T18:07:56.188Z,3.87
2018-08-06T18:10:24.836Z,3.90
2018-08-06T18:12:53.769Z,4.20
2018-08-06T18:15:22.411Z,4.33
2018-08-06T18:17:52.058Z,3.87
2018-08-06T18:20:21.029Z,4.43
2018-08-06T18:22:49.691Z,4.00
2018-08-06T18:25:19.502Z,4.07
2018-08-06T18:27:49.624Z,5.00
2018-08-06T18:30:20.350Z,4.60
2018-08-06T18:32:48.996Z,4.23
2018-08-06T18:35:18.690Z,4.40
2018-08-06T18:37:47.505Z,4.20
2018-08-06T18:40:17.773Z,4.27
2018-08-06T18:42:46.758Z,4.67
2018-08-06T18:45:20.973Z,5.10
2018-08-06T18:47:50.311Z,4.40
2018-08-06T18:50:19.561Z,4.60
2018-08-06T18:52:48.795Z,4.63
2018-08-06T18:55:17.668Z,5.27
2018-08-06T18:57:47.164Z,4.90
2018-08-06T19:00:19.423Z,4.30
2018-08-06T19:02:48.068Z,4.00
2018-08-06T19:05:16.731Z,5.03
2018-08-06T19:07:45.357Z,11.63
2018-08-06T19:10:14.328Z,5.40
2018-08-06T19:12:48.182Z,4.87
2018-08-06T19:15:16.860Z,5.50
2018-08-06T19:17:50.890Z,5.63
2018-08-06T19:20:19.550Z,5.67
2018-08-06T19:22:48.380Z,5.43
2018-08-06T19:25:22.060Z,4.53
2018-08-06T19:27:50.587Z,5.00
2018-08-06T19:30:19.487Z,4.80
2018-08-06T19:32:48.100Z,4.80
2018-08-06T19:35:16.632Z,4.70
2018-08-06T19:37:47.215Z,4.40
2018-08-06T19:40:16.172Z,6.60
2018-08-06T19:42:49.817Z,9.03
2018-08-06T19:45:19.020Z,6.27
2018-08-06T19:47:47.524Z,6.10
2018-08-06T19:50:21.375Z,4.80
2018-08-06T19:52:50.342Z,4.90
2018-08-06T19:55:24.081Z,4.93
2018-08-06T19:57:52.909Z,4.83
2018-08-06T20:00:22.059Z,4.70
2018-08-06T20:02:50.573Z,4.57
2018-08-06T20:05:19.300Z,4.87
2018-08-06T20:07:48.290Z,4.63
2018-08-06T20:10:17.299Z,5.23
2018-08-06T20:12:45.950Z,4.70
2018-08-06T20:15:17.136Z,5.87
2018-08-06T20:17:46.002Z,5.90
2018-08-06T20:20:14.596Z,5.90
2018-08-06T20:22:44.109Z,5.90
2018-08-06T20:25:15.400Z,5.70
2018-08-06T20:27:44.303Z,5.70
2018-08-06T20:30:14.379Z,5.73
2018-08-06T20:32:42.972Z,7.17
2018-08-06T20:35:13.498Z,6.50
2018-08-06T20:37:42.488Z,5.90
2018-08-06T20:40:11.772Z,9.80
2018-08-06T20:42:41.746Z,12.33
2018-08-06T20:45:13.365Z,9.90
2018-08-06T20:47:42.900Z,9.20
2018-08-06T20:50:14.501Z,7.77
2018-08-06T20:52:43.451Z,8.10
2018-08-06T20:55:12.417Z,6.80
2018-08-06T20:57:41.560Z,8.03
2018-08-06T21:00:13.591Z,6.80
2018-08-06T21:02:42.366Z,8.60
2018-08-06T21:05:10.915Z,7.10
2018-08-06T21:07:40.482Z,9.40
2018-08-06T21:10:10.589Z,7.10
2018-08-06T21:12:39.601Z,6.80
2018-08-06T21:15:10.521Z,7.23
2018-08-06T21:17:39.437Z,7.17
2018-08-06T21:20:09.840Z,7.20
2018-08-06T21:22:38.510Z,8.50
2018-08-06T21:25:10.667Z,7.70
2018-08-06T21:27:40.289Z,7.70
2018-08-06T21:30:11.235Z,6.70
2018-08-06T21:32:42.746Z,6.40
2018-08-06T21:35:11.347Z,6.33
2018-08-06T21:37:39.891Z,6.70
2018-08-06T21:40:09.325Z,6.70
2018-08-06T21:42:38.343Z,7.07
2018-08-06T21:45:06.999Z,6.07
2018-08-06T21:49:56.011Z,5.47
2018-08-06T21:52:24.651Z,6.27
2018-08-06T21:54:53.490Z,6.00
2018-08-06T21:57:22.019Z,5.60
2018-08-06T21:59:50.630Z,6.17
2018-08-06T22:02:19.244Z,6.30
2018-08-06T22:04:48.166Z,5.47
2018-08-06T22:07:16.819Z,6.93
2018-08-06T22:09:45.510Z,5.60
2018-08-06T22:12:14.907Z,6.17
2018-08-06T22:14:43.617Z,6.70
2018-08-06T22:17:12.175Z,5.43
2018-08-06T22:19:41.066Z,6.20
2018-08-06T22:22:10.457Z,7.33
2018-08-06T22:24:39.329Z,5.67
2018-08-06T22:27:08.125Z,6.20
2018-08-06T22:29:37.733Z,6.37
2018-08-06T22:32:06.425Z,7.37
2018-08-06T22:34:35.025Z,7.07
2018-08-06T22:37:03.963Z,7.00
2018-08-06T22:39:32.545Z,7.07
2018-08-06T22:42:03.278Z,7.00
2018-08-06T22:44:32.054Z,7.67
2018-08-06T22:47:00.648Z,7.70
2018-08-06T22:49:29.654Z,8.23
2018-08-06T22:51:58.331Z,8.87
2018-08-06T22:54:26.829Z,7.30
2018-08-06T22:56:55.337Z,6.73
2018-08-06T22:59:24.137Z,7.47
2018-08-06T23:01:52.666Z,6.83
2018-08-06T23:04:21.185Z,8.20
2018-08-06T23:06:50.065Z,8.00
2018-08-06T23:09:18.887Z,7.13
2018-08-06T23:11:47.502Z,7.37
2018-08-06T23:14:16.238Z,6.60
2018-08-06T23:16:44.855Z,6.80
2018-08-06T23:33:39.560Z,6.43
2018-08-06T23:36:08.290Z,6.37
2018-08-06T23:38:40.038Z,6.33
2018-08-06T23:41:10.065Z,6.53
2018-08-06T23:43:38.636Z,6.60
2018-08-06T23:46:07.224Z,6.30
2018-08-06T23:54:29.230Z,5.60
2018-08-06T23:57:02.951Z,6.07
2018-08-06T23:59:42.343Z,5.33
